CCH5 weather

Montreal / Longueuil (Centre Hospitalier Pierre-Boucher) Heliport
Montréal, Quebec, Canada

Public forecast

Using degrees Celsius for public forecast. Weather courtesy of forecast.io.

Closest aviation weather report (METAR) to Montreal / Longueuil (Centre Hospitalier Pierre-Boucher) Heliport

Closest report is Montréal / Saint-Hubert Airport, 2.2 nm (4.1 km) SE. Retrieved 2020/08/06 13:00 UTC (26 minutes ago):

CYHU 061300Z AUTO 26013G19KT 9SM CLR 18/13 A3008 RMK SLP187 DENSITY ALT 300FT

Closest aviation forecast (TAF) to Montreal / Longueuil (Centre Hospitalier Pierre-Boucher) Heliport

Closest forecast is Montréal / Saint-Hubert Airport, 2.2 nm (4.1 km) SE. Retrieved 2020/08/06 12:42 UTC (44 minutes ago):

TAF CYHU 061138Z 0612/0712 24008G18KT P6SM SKC BECMG 0614/0616 SCT050 BECMG 0616/0618 BKN050 FM070000 22006KT P6SM FEW050 RMK FCST BASED ON AUTO OBS NXT FCST BY 061800Z